Terminal Aerodrome Forecast
Issued by NWS Cleveland, OH

Home | Current Version | Previous Version | Text Only | Print | Product List | Glossary Off
Versions: 1 2 3 4 5 6 7 8 9 10 11 12 13 14 15 16 17

000
FTUS41 KCLE 261100
TAFCAK
TAF
KCAK 261134Z 2612/2712 03012KT 4SM -SN OVC035
      TEMPO 2612/2614 2SM -SN OVC025
     FM261400 03010KT 2SM -SN OVC025
     FM261600 02008KT 1SM -SN BR OVC008
     FM262100 36008KT 4SM -SN BR OVC015
     FM270000 33005KT P6SM OVC025=

USA.gov is the U.S. government's official web portal to all federal, state and local government web resources and services.